sensor_id;sensor_type;location;lat;lon;timestamp;P1;durP1;ratioP1;P2;durP2;ratioP2
13584;SDS011;6863;48.402;9.994;2023-03-14T00:02:02;1.00;;;1.00;;
13584;SDS011;6863;48.402;9.994;2023-03-14T00:04:27;1.33;;;1.17;;
13584;SDS011;6863;48.402;9.994;2023-03-14T00:06:53;0.83;;;0.80;;
13584;SDS011;6863;48.402;9.994;2023-03-14T00:09:19;0.83;;;0.83;;
13584;SDS011;6863;48.402;9.994;2023-03-14T00:11:44;0.83;;;0.63;;
13584;SDS011;6863;48.402;9.994;2023-03-14T00:14:10;1.13;;;0.80;;
13584;SDS011;6863;48.402;9.994;2023-03-14T00:16:36;1.13;;;0.90;;
13584;SDS011;6863;48.402;9.994;2023-03-14T00:19:02;1.60;;;0.90;;
13584;SDS011;6863;48.402;9.994;2023-03-14T00:21:28;1.30;;;0.67;;
13584;SDS011;6863;48.402;9.994;2023-03-14T00:23:53;2.13;;;1.10;;
13584;SDS011;6863;48.402;9.994;2023-03-14T00:26:20;2.00;;;0.80;;
13584;SDS011;6863;48.402;9.994;2023-03-14T00:28:47;1.80;;;1.30;;
13584;SDS011;6863;48.402;9.994;2023-03-14T00:31:16;1.30;;;1.20;;
13584;SDS011;6863;48.402;9.994;2023-03-14T00:33:42;0.80;;;0.80;;
13584;SDS011;6863;48.402;9.994;2023-03-14T00:36:09;1.33;;;0.87;;
13584;SDS011;6863;48.402;9.994;2023-03-14T00:38:37;0.97;;;0.97;;
13584;SDS011;6863;48.402;9.994;2023-03-14T00:41:09;1.90;;;1.10;;
13584;SDS011;6863;48.402;9.994;2023-03-14T00:43:39;0.80;;;0.80;;
13584;SDS011;6863;48.402;9.994;2023-03-14T00:46:05;0.50;;;0.50;;
13584;SDS011;6863;48.402;9.994;2023-03-14T00:48:31;1.50;;;0.70;;
13584;SDS011;6863;48.402;9.994;2023-03-14T00:50:57;0.60;;;0.60;;
13584;SDS011;6863;48.402;9.994;2023-03-14T00:53:22;0.57;;;0.57;;
13584;SDS011;6863;48.402;9.994;2023-03-14T00:55:48;0.73;;;0.53;;
13584;SDS011;6863;48.402;9.994;2023-03-14T00:58:15;0.60;;;0.60;;
13584;SDS011;6863;48.402;9.994;2023-03-14T01:00:42;0.63;;;0.63;;
13584;SDS011;6863;48.402;9.994;2023-03-14T01:03:08;0.60;;;0.60;;
13584;SDS011;6863;48.402;9.994;2023-03-14T01:05:34;0.53;;;0.53;;
13584;SDS011;6863;48.402;9.994;2023-03-14T01:08:00;0.97;;;0.90;;
13584;SDS011;6863;48.402;9.994;2023-03-14T01:10:26;1.13;;;0.90;;
13584;SDS011;6863;48.402;9.994;2023-03-14T01:12:51;0.83;;;0.70;;
13584;SDS011;6863;48.402;9.994;2023-03-14T01:15:17;0.40;;;0.40;;
13584;SDS011;6863;48.402;9.994;2023-03-14T01:17:43;1.30;;;0.73;;
13584;SDS011;6863;48.402;9.994;2023-03-14T01:20:10;0.67;;;0.67;;
13584;SDS011;6863;48.402;9.994;2023-03-14T01:22:37;0.53;;;0.50;;
13584;SDS011;6863;48.402;9.994;2023-03-14T01:25:08;0.93;;;0.73;;
13584;SDS011;6863;48.402;9.994;2023-03-14T01:27:36;1.23;;;0.70;;
13584;SDS011;6863;48.402;9.994;2023-03-14T01:30:02;0.60;;;0.60;;
13584;SDS011;6863;48.402;9.994;2023-03-14T01:32:29;0.90;;;0.60;;
13584;SDS011;6863;48.402;9.994;2023-03-14T01:34:54;1.07;;;0.67;;
13584;SDS011;6863;48.402;9.994;2023-03-14T01:37:20;1.40;;;0.50;;
13584;SDS011;6863;48.402;9.994;2023-03-14T01:39:46;1.33;;;0.60;;
13584;SDS011;6863;48.402;9.994;2023-03-14T01:42:12;1.13;;;0.73;;
13584;SDS011;6863;48.402;9.994;2023-03-14T01:44:54;0.73;;;0.73;;
13584;SDS011;6863;48.402;9.994;2023-03-14T01:47:22;0.60;;;0.60;;
13584;SDS011;6863;48.402;9.994;2023-03-14T01:50:07;1.03;;;0.60;;
13584;SDS011;6863;48.402;9.994;2023-03-14T01:52:40;0.60;;;0.60;;
13584;SDS011;6863;48.402;9.994;2023-03-14T01:55:17;0.30;;;0.30;;
13584;SDS011;6863;48.402;9.994;2023-03-14T01:57:56;0.60;;;0.50;;
13584;SDS011;6863;48.402;9.994;2023-03-14T02:00:27;0.60;;;0.60;;
13584;SDS011;6863;48.402;9.994;2023-03-14T02:02:55;0.83;;;0.40;;
13584;SDS011;6863;48.402;9.994;2023-03-14T02:05:28;1.20;;;0.70;;
13584;SDS011;6863;48.402;9.994;2023-03-14T02:08:00;0.63;;;0.50;;
13584;SDS011;6863;48.402;9.994;2023-03-14T02:10:33;0.40;;;0.40;;
13584;SDS011;6863;48.402;9.994;2023-03-14T02:13:03;0.40;;;0.40;;
13584;SDS011;6863;48.402;9.994;2023-03-14T02:15:29;0.60;;;0.60;;
13584;SDS011;6863;48.402;9.994;2023-03-14T02:17:56;0.37;;;0.37;;
13584;SDS011;6863;48.402;9.994;2023-03-14T02:23:07;0.50;;;0.50;;
13584;SDS011;6863;48.402;9.994;2023-03-14T02:28:17;1.60;;;0.50;;
13584;SDS011;6863;48.402;9.994;2023-03-14T02:30:43;0.40;;;0.40;;
13584;SDS011;6863;48.402;9.994;2023-03-14T02:33:10;0.70;;;0.53;;
13584;SDS011;6863;48.402;9.994;2023-03-14T02:41:00;0.40;;;0.40;;
13584;SDS011;6863;48.402;9.994;2023-03-14T02:43:26;0.60;;;0.60;;
13584;SDS011;6863;48.402;9.994;2023-03-14T02:45:52;0.63;;;0.40;;
13584;SDS011;6863;48.402;9.994;2023-03-14T02:48:24;0.40;;;0.40;;
13584;SDS011;6863;48.402;9.994;2023-03-14T02:50:53;0.50;;;0.50;;
13584;SDS011;6863;48.402;9.994;2023-03-14T02:53:28;0.70;;;0.70;;
13584;SDS011;6863;48.402;9.994;2023-03-14T02:55:58;0.57;;;0.57;;
13584;SDS011;6863;48.402;9.994;2023-03-14T02:58:24;0.60;;;0.60;;
13584;SDS011;6863;48.402;9.994;2023-03-14T03:00:51;0.80;;;0.80;;
13584;SDS011;6863;48.402;9.994;2023-03-14T03:03:17;0.50;;;0.50;;
13584;SDS011;6863;48.402;9.994;2023-03-14T03:05:43;0.50;;;0.50;;
13584;SDS011;6863;48.402;9.994;2023-03-14T03:08:12;0.60;;;0.60;;
13584;SDS011;6863;48.402;9.994;2023-03-14T03:10:38;0.60;;;0.60;;
13584;SDS011;6863;48.402;9.994;2023-03-14T03:13:03;0.60;;;0.60;;
13584;SDS011;6863;48.402;9.994;2023-03-14T03:15:29;0.57;;;0.57;;
13584;SDS011;6863;48.402;9.994;2023-03-14T03:17:55;0.67;;;0.67;;
13584;SDS011;6863;48.402;9.994;2023-03-14T03:20:20;2.70;;;0.67;;
13584;SDS011;6863;48.402;9.994;2023-03-14T03:22:46;0.67;;;0.67;;
13584;SDS011;6863;48.402;9.994;2023-03-14T03:25:11;0.80;;;0.80;;
13584;SDS011;6863;48.402;9.994;2023-03-14T03:27:37;0.70;;;0.70;;
13584;SDS011;6863;48.402;9.994;2023-03-14T03:30:04;0.90;;;0.90;;
13584;SDS011;6863;48.402;9.994;2023-03-14T03:32:31;0.80;;;0.80;;
13584;SDS011;6863;48.402;9.994;2023-03-14T03:34:56;0.80;;;0.80;;
13584;SDS011;6863;48.402;9.994;2023-03-14T03:37:22;0.93;;;0.80;;
13584;SDS011;6863;48.402;9.994;2023-03-14T03:39:49;0.90;;;0.90;;
13584;SDS011;6863;48.402;9.994;2023-03-14T03:42:16;0.60;;;0.60;;
13584;SDS011;6863;48.402;9.994;2023-03-14T03:44:41;0.80;;;0.80;;
13584;SDS011;6863;48.402;9.994;2023-03-14T03:47:07;1.10;;;1.10;;
13584;SDS011;6863;48.402;9.994;2023-03-14T03:49:33;1.17;;;1.07;;
13584;SDS011;6863;48.402;9.994;2023-03-14T03:51:58;1.60;;;1.00;;
13584;SDS011;6863;48.402;9.994;2023-03-14T03:54:24;1.50;;;1.40;;
13584;SDS011;6863;48.402;9.994;2023-03-14T03:56:50;1.13;;;1.13;;
13584;SDS011;6863;48.402;9.994;2023-03-14T03:59:16;1.87;;;1.30;;
13584;SDS011;6863;48.402;9.994;2023-03-14T04:01:42;1.73;;;1.43;;
13584;SDS011;6863;48.402;9.994;2023-03-14T04:04:08;0.80;;;0.80;;
13584;SDS011;6863;48.402;9.994;2023-03-14T04:06:33;1.17;;;1.17;;
13584;SDS011;6863;48.402;9.994;2023-03-14T04:08:59;0.70;;;0.70;;
13584;SDS011;6863;48.402;9.994;2023-03-14T04:11:25;0.50;;;0.50;;
13584;SDS011;6863;48.402;9.994;2023-03-14T04:13:51;0.70;;;0.70;;
13584;SDS011;6863;48.402;9.994;2023-03-14T04:18:48;0.80;;;0.80;;
13584;SDS011;6863;48.402;9.994;2023-03-14T04:21:14;1.70;;;0.80;;
13584;SDS011;6863;48.402;9.994;2023-03-14T04:23:40;0.70;;;0.70;;
13584;SDS011;6863;48.402;9.994;2023-03-14T04:26:05;0.70;;;0.70;;
13584;SDS011;6863;48.402;9.994;2023-03-14T04:28:31;0.80;;;0.80;;
13584;SDS011;6863;48.402;9.994;2023-03-14T04:30:57;0.80;;;0.80;;
13584;SDS011;6863;48.402;9.994;2023-03-14T04:33:23;0.60;;;0.60;;
13584;SDS011;6863;48.402;9.994;2023-03-14T04:35:48;0.50;;;0.50;;
13584;SDS011;6863;48.402;9.994;2023-03-14T04:38:18;0.67;;;0.67;;
13584;SDS011;6863;48.402;9.994;2023-03-14T04:40:43;0.50;;;0.50;;
13584;SDS011;6863;48.402;9.994;2023-03-14T04:43:09;0.70;;;0.70;;
13584;SDS011;6863;48.402;9.994;2023-03-14T04:45:36;0.50;;;0.50;;
13584;SDS011;6863;48.402;9.994;2023-03-14T04:48:02;0.50;;;0.50;;
13584;SDS011;6863;48.402;9.994;2023-03-14T04:50:28;0.60;;;0.60;;
13584;SDS011;6863;48.402;9.994;2023-03-14T04:52:53;0.50;;;0.50;;
13584;SDS011;6863;48.402;9.994;2023-03-14T04:55:19;0.63;;;0.63;;
13584;SDS011;6863;48.402;9.994;2023-03-14T04:57:51;0.60;;;0.60;;
13584;SDS011;6863;48.402;9.994;2023-03-14T05:00:16;0.70;;;0.70;;
13584;SDS011;6863;48.402;9.994;2023-03-14T05:02:45;1.40;;;1.00;;
13584;SDS011;6863;48.402;9.994;2023-03-14T05:05:10;0.70;;;0.70;;
13584;SDS011;6863;48.402;9.994;2023-03-14T05:07:36;0.57;;;0.57;;
13584;SDS011;6863;48.402;9.994;2023-03-14T05:10:02;0.70;;;0.63;;
13584;SDS011;6863;48.402;9.994;2023-03-14T05:12:28;0.60;;;0.60;;
13584;SDS011;6863;48.402;9.994;2023-03-14T05:14:53;0.60;;;0.60;;
13584;SDS011;6863;48.402;9.994;2023-03-14T05:17:19;0.50;;;0.50;;
13584;SDS011;6863;48.402;9.994;2023-03-14T05:19:48;0.77;;;0.77;;
13584;SDS011;6863;48.402;9.994;2023-03-14T05:22:14;1.43;;;0.67;;
13584;SDS011;6863;48.402;9.994;2023-03-14T05:24:39;1.07;;;0.60;;
13584;SDS011;6863;48.402;9.994;2023-03-14T05:27:05;0.70;;;0.70;;
13584;SDS011;6863;48.402;9.994;2023-03-14T05:29:30;0.80;;;0.80;;
13584;SDS011;6863;48.402;9.994;2023-03-14T05:31:56;1.00;;;1.00;;
13584;SDS011;6863;48.402;9.994;2023-03-14T05:34:22;0.80;;;0.80;;
13584;SDS011;6863;48.402;9.994;2023-03-14T05:36:47;0.83;;;0.83;;
13584;SDS011;6863;48.402;9.994;2023-03-14T05:39:13;0.70;;;0.70;;
13584;SDS011;6863;48.402;9.994;2023-03-14T05:41:38;0.93;;;0.87;;
13584;SDS011;6863;48.402;9.994;2023-03-14T05:44:04;0.67;;;0.67;;
13584;SDS011;6863;48.402;9.994;2023-03-14T05:46:29;0.70;;;0.70;;
13584;SDS011;6863;48.402;9.994;2023-03-14T05:48:56;0.60;;;0.60;;
13584;SDS011;6863;48.402;9.994;2023-03-14T05:51:25;0.60;;;0.60;;
13584;SDS011;6863;48.402;9.994;2023-03-14T05:53:50;0.70;;;0.70;;
13584;SDS011;6863;48.402;9.994;2023-03-14T05:56:16;0.70;;;0.70;;
13584;SDS011;6863;48.402;9.994;2023-03-14T05:58:42;0.80;;;0.80;;
13584;SDS011;6863;48.402;9.994;2023-03-14T06:01:07;0.70;;;0.70;;
13584;SDS011;6863;48.402;9.994;2023-03-14T06:03:33;1.30;;;1.20;;
13584;SDS011;6863;48.402;9.994;2023-03-14T06:05:59;1.90;;;1.80;;
13584;SDS011;6863;48.402;9.994;2023-03-14T06:08:24;1.50;;;1.40;;
13584;SDS011;6863;48.402;9.994;2023-03-14T06:10:51;1.00;;;1.00;;
13584;SDS011;6863;48.402;9.994;2023-03-14T06:13:17;0.80;;;0.80;;
13584;SDS011;6863;48.402;9.994;2023-03-14T06:15:42;0.93;;;0.80;;
13584;SDS011;6863;48.402;9.994;2023-03-14T06:18:08;0.70;;;0.70;;
13584;SDS011;6863;48.402;9.994;2023-03-14T06:20:37;0.70;;;0.70;;
13584;SDS011;6863;48.402;9.994;2023-03-14T06:23:07;0.70;;;0.70;;
13584;SDS011;6863;48.402;9.994;2023-03-14T06:25:36;1.30;;;1.30;;
13584;SDS011;6863;48.402;9.994;2023-03-14T06:28:02;1.60;;;1.50;;
13584;SDS011;6863;48.402;9.994;2023-03-14T06:30:28;1.30;;;1.20;;
13584;SDS011;6863;48.402;9.994;2023-03-14T06:32:53;0.80;;;0.80;;
13584;SDS011;6863;48.402;9.994;2023-03-14T06:35:20;1.03;;;0.83;;
13584;SDS011;6863;48.402;9.994;2023-03-14T06:37:47;1.33;;;0.80;;
13584;SDS011;6863;48.402;9.994;2023-03-14T06:40:12;0.70;;;0.70;;
13584;SDS011;6863;48.402;9.994;2023-03-14T06:42:42;1.03;;;0.90;;
13584;SDS011;6863;48.402;9.994;2023-03-14T06:45:08;1.07;;;0.80;;
13584;SDS011;6863;48.402;9.994;2023-03-14T06:47:34;1.37;;;1.00;;
13584;SDS011;6863;48.402;9.994;2023-03-14T06:50:00;0.80;;;0.80;;
13584;SDS011;6863;48.402;9.994;2023-03-14T06:52:25;2.40;;;1.03;;
13584;SDS011;6863;48.402;9.994;2023-03-14T06:54:51;1.27;;;1.17;;
13584;SDS011;6863;48.402;9.994;2023-03-14T06:57:16;0.90;;;0.90;;
13584;SDS011;6863;48.402;9.994;2023-03-14T06:59:42;0.77;;;0.77;;
13584;SDS011;6863;48.402;9.994;2023-03-14T07:02:10;1.10;;;1.00;;
13584;SDS011;6863;48.402;9.994;2023-03-14T07:04:37;0.90;;;0.90;;
13584;SDS011;6863;48.402;9.994;2023-03-14T07:07:02;1.90;;;1.43;;
13584;SDS011;6863;48.402;9.994;2023-03-14T07:09:28;1.30;;;1.20;;
13584;SDS011;6863;48.402;9.994;2023-03-14T07:11:53;1.00;;;1.00;;
13584;SDS011;6863;48.402;9.994;2023-03-14T07:14:19;1.10;;;1.00;;
13584;SDS011;6863;48.402;9.994;2023-03-14T07:16:44;0.70;;;0.70;;
13584;SDS011;6863;48.402;9.994;2023-03-14T07:19:10;1.30;;;1.20;;
13584;SDS011;6863;48.402;9.994;2023-03-14T07:21:36;1.07;;;1.07;;
13584;SDS011;6863;48.402;9.994;2023-03-14T07:24:02;1.30;;;1.20;;
13584;SDS011;6863;48.402;9.994;2023-03-14T07:26:27;2.37;;;1.43;;
13584;SDS011;6863;48.402;9.994;2023-03-14T07:28:53;1.50;;;1.00;;
13584;SDS011;6863;48.402;9.994;2023-03-14T07:31:18;1.00;;;0.93;;
13584;SDS011;6863;48.402;9.994;2023-03-14T07:33:44;1.23;;;1.17;;
13584;SDS011;6863;48.402;9.994;2023-03-14T07:36:10;1.53;;;1.43;;
13584;SDS011;6863;48.402;9.994;2023-03-14T07:38:39;2.00;;;1.40;;
13584;SDS011;6863;48.402;9.994;2023-03-14T07:41:07;1.50;;;1.40;;
13584;SDS011;6863;48.402;9.994;2023-03-14T07:43:34;1.40;;;1.30;;
13584;SDS011;6863;48.402;9.994;2023-03-14T07:46:00;2.30;;;1.30;;
13584;SDS011;6863;48.402;9.994;2023-03-14T07:48:28;1.47;;;1.10;;
13584;SDS011;6863;48.402;9.994;2023-03-14T07:50:54;2.20;;;1.10;;
13584;SDS011;6863;48.402;9.994;2023-03-14T07:53:21;1.53;;;1.10;;
13584;SDS011;6863;48.402;9.994;2023-03-14T07:55:47;1.10;;;1.10;;
13584;SDS011;6863;48.402;9.994;2023-03-14T07:58:17;1.00;;;1.00;;
13584;SDS011;6863;48.402;9.994;2023-03-14T08:00:43;1.43;;;1.00;;
13584;SDS011;6863;48.402;9.994;2023-03-14T08:03:09;0.93;;;0.83;;
13584;SDS011;6863;48.402;9.994;2023-03-14T08:05:35;1.43;;;1.10;;
13584;SDS011;6863;48.402;9.994;2023-03-14T08:08:02;0.80;;;0.80;;
13584;SDS011;6863;48.402;9.994;2023-03-14T08:10:28;0.90;;;0.90;;
13584;SDS011;6863;48.402;9.994;2023-03-14T08:12:54;1.17;;;0.90;;
13584;SDS011;6863;48.402;9.994;2023-03-14T08:15:21;0.97;;;0.90;;
13584;SDS011;6863;48.402;9.994;2023-03-14T08:17:57;0.70;;;0.70;;
13584;SDS011;6863;48.402;9.994;2023-03-14T08:20:27;1.00;;;1.00;;
13584;SDS011;6863;48.402;9.994;2023-03-14T08:22:57;3.60;;;1.20;;
13584;SDS011;6863;48.402;9.994;2023-03-14T08:25:24;0.70;;;0.70;;
13584;SDS011;6863;48.402;9.994;2023-03-14T08:27:50;0.60;;;0.60;;
13584;SDS011;6863;48.402;9.994;2023-03-14T08:30:16;1.57;;;1.00;;
13584;SDS011;6863;48.402;9.994;2023-03-14T08:32:43;0.70;;;0.70;;
13584;SDS011;6863;48.402;9.994;2023-03-14T08:35:09;2.40;;;0.90;;
13584;SDS011;6863;48.402;9.994;2023-03-14T08:37:35;3.37;;;1.17;;
13584;SDS011;6863;48.402;9.994;2023-03-14T08:40:01;0.90;;;0.73;;
13584;SDS011;6863;48.402;9.994;2023-03-14T08:42:35;0.57;;;0.57;;
13584;SDS011;6863;48.402;9.994;2023-03-14T08:45:05;0.80;;;0.80;;
13584;SDS011;6863;48.402;9.994;2023-03-14T08:47:31;1.00;;;1.00;;
13584;SDS011;6863;48.402;9.994;2023-03-14T08:49:57;2.13;;;0.80;;
13584;SDS011;6863;48.402;9.994;2023-03-14T08:52:23;0.87;;;0.70;;
13584;SDS011;6863;48.402;9.994;2023-03-14T08:54:48;1.03;;;0.93;;
13584;SDS011;6863;48.402;9.994;2023-03-14T08:57:14;0.90;;;0.90;;
13584;SDS011;6863;48.402;9.994;2023-03-14T08:59:39;0.87;;;0.77;;
13584;SDS011;6863;48.402;9.994;2023-03-14T09:02:05;0.80;;;0.80;;
13584;SDS011;6863;48.402;9.994;2023-03-14T09:04:31;0.60;;;0.60;;
13584;SDS011;6863;48.402;9.994;2023-03-14T09:06:57;0.60;;;0.60;;
13584;SDS011;6863;48.402;9.994;2023-03-14T09:09:24;1.47;;;1.00;;
13584;SDS011;6863;48.402;9.994;2023-03-14T09:11:51;1.50;;;1.00;;
13584;SDS011;6863;48.402;9.994;2023-03-14T09:14:17;0.70;;;0.70;;
13584;SDS011;6863;48.402;9.994;2023-03-14T09:16:49;1.87;;;1.00;;
13584;SDS011;6863;48.402;9.994;2023-03-14T09:19:15;0.87;;;0.87;;
13584;SDS011;6863;48.402;9.994;2023-03-14T09:21:41;0.93;;;0.90;;
13584;SDS011;6863;48.402;9.994;2023-03-14T09:24:07;0.60;;;0.60;;
13584;SDS011;6863;48.402;9.994;2023-03-14T09:26:32;0.80;;;0.77;;
13584;SDS011;6863;48.402;9.994;2023-03-14T09:28:58;1.10;;;1.00;;
13584;SDS011;6863;48.402;9.994;2023-03-14T09:31:24;1.33;;;0.57;;
13584;SDS011;6863;48.402;9.994;2023-03-14T09:33:49;0.60;;;0.60;;
13584;SDS011;6863;48.402;9.994;2023-03-14T09:36:15;1.13;;;0.80;;
13584;SDS011;6863;48.402;9.994;2023-03-14T09:38:40;0.60;;;0.60;;
13584;SDS011;6863;48.402;9.994;2023-03-14T09:41:16;2.67;;;0.90;;
13584;SDS011;6863;48.402;9.994;2023-03-14T09:43:46;0.77;;;0.70;;
13584;SDS011;6863;48.402;9.994;2023-03-14T09:46:16;0.87;;;0.87;;
13584;SDS011;6863;48.402;9.994;2023-03-14T09:48:42;0.60;;;0.60;;
13584;SDS011;6863;48.402;9.994;2023-03-14T09:51:13;1.23;;;0.77;;
13584;SDS011;6863;48.402;9.994;2023-03-14T09:53:43;0.77;;;0.77;;
13584;SDS011;6863;48.402;9.994;2023-03-14T09:56:16;0.77;;;0.77;;
13584;SDS011;6863;48.402;9.994;2023-03-14T09:58:45;1.00;;;0.90;;
13584;SDS011;6863;48.402;9.994;2023-03-14T10:01:16;0.73;;;0.73;;
13584;SDS011;6863;48.402;9.994;2023-03-14T10:03:47;1.10;;;0.87;;
13584;SDS011;6863;48.402;9.994;2023-03-14T10:06:14;1.40;;;1.10;;
13584;SDS011;6863;48.402;9.994;2023-03-14T10:08:43;1.17;;;0.87;;
13584;SDS011;6863;48.402;9.994;2023-03-14T10:11:16;0.70;;;0.70;;
13584;SDS011;6863;48.402;9.994;2023-03-14T10:13:47;0.97;;;0.73;;
13584;SDS011;6863;48.402;9.994;2023-03-14T10:16:33;1.00;;;0.70;;
13584;SDS011;6863;48.402;9.994;2023-03-14T10:19:02;1.67;;;1.00;;
13584;SDS011;6863;48.402;9.994;2023-03-14T10:21:30;0.70;;;0.70;;
13584;SDS011;6863;48.402;9.994;2023-03-14T10:26:34;1.07;;;0.90;;
13584;SDS011;6863;48.402;9.994;2023-03-14T10:29:01;0.67;;;0.67;;
13584;SDS011;6863;48.402;9.994;2023-03-14T10:31:54;1.97;;;0.67;;
13584;SDS011;6863;48.402;9.994;2023-03-14T10:34:35;1.00;;;0.87;;
13584;SDS011;6863;48.402;9.994;2023-03-14T10:37:06;0.83;;;0.63;;
13584;SDS011;6863;48.402;9.994;2023-03-14T10:39:45;0.63;;;0.60;;
13584;SDS011;6863;48.402;9.994;2023-03-14T10:45:04;1.38;;;1.02;;
13584;SDS011;6863;48.402;9.994;2023-03-14T10:47:50;0.80;;;0.80;;
13584;SDS011;6863;48.402;9.994;2023-03-14T10:50:23;1.13;;;0.87;;
13584;SDS011;6863;48.402;9.994;2023-03-14T10:52:52;0.70;;;0.70;;
13584;SDS011;6863;48.402;9.994;2023-03-14T10:55:18;1.25;;;1.05;;
13584;SDS011;6863;48.402;9.994;2023-03-14T10:57:44;2.00;;;1.02;;
13584;SDS011;6863;48.402;9.994;2023-03-14T11:00:17;0.80;;;0.80;;
13584;SDS011;6863;48.402;9.994;2023-03-14T11:08:25;0.82;;;0.82;;
13584;SDS011;6863;48.402;9.994;2023-03-14T11:11:14;1.50;;;0.60;;
13584;SDS011;6863;48.402;9.994;2023-03-14T11:13:48;0.70;;;0.70;;
13584;SDS011;6863;48.402;9.994;2023-03-14T11:16:30;0.40;;;0.40;;
13584;SDS011;6863;48.402;9.994;2023-03-14T11:19:13;0.97;;;0.90;;
13584;SDS011;6863;48.402;9.994;2023-03-14T11:27:22;0.77;;;0.77;;
13584;SDS011;6863;48.402;9.994;2023-03-14T11:29:55;1.00;;;1.00;;
13584;SDS011;6863;48.402;9.994;2023-03-14T11:34:58;1.27;;;0.87;;
13584;SDS011;6863;48.402;9.994;2023-03-14T11:37:29;1.00;;;0.90;;
13584;SDS011;6863;48.402;9.994;2023-03-14T11:40:13;0.90;;;0.90;;
13584;SDS011;6863;48.402;9.994;2023-03-14T11:42:46;1.17;;;0.77;;
13584;SDS011;6863;48.402;9.994;2023-03-14T11:45:21;0.70;;;0.70;;
13584;SDS011;6863;48.402;9.994;2023-03-14T11:48:05;0.93;;;0.70;;
13584;SDS011;6863;48.402;9.994;2023-03-14T11:50:32;0.50;;;0.50;;
13584;SDS011;6863;48.402;9.994;2023-03-14T11:53:02;0.80;;;0.80;;
13584;SDS011;6863;48.402;9.994;2023-03-14T11:55:35;0.73;;;0.70;;
13584;SDS011;6863;48.402;9.994;2023-03-14T11:58:08;0.70;;;0.70;;
13584;SDS011;6863;48.402;9.994;2023-03-14T12:00:34;0.50;;;0.50;;
13584;SDS011;6863;48.402;9.994;2023-03-14T12:03:46;0.60;;;0.60;;
13584;SDS011;6863;48.402;9.994;2023-03-14T12:08:29;0.50;;;0.50;;
13584;SDS011;6863;48.402;9.994;2023-03-14T12:11:04;0.50;;;0.50;;
13584;SDS011;6863;48.402;9.994;2023-03-14T12:13:46;0.50;;;0.50;;
13584;SDS011;6863;48.402;9.994;2023-03-14T12:18:49;0.40;;;0.40;;
13584;SDS011;6863;48.402;9.994;2023-03-14T12:21:15;0.30;;;0.30;;
13584;SDS011;6863;48.402;9.994;2023-03-14T12:26:17;0.87;;;0.87;;
13584;SDS011;6863;48.402;9.994;2023-03-14T12:36:51;0.60;;;0.60;;
13584;SDS011;6863;48.402;9.994;2023-03-14T12:42:03;0.60;;;0.60;;
13584;SDS011;6863;48.402;9.994;2023-03-14T12:49:43;0.70;;;0.70;;
13584;SDS011;6863;48.402;9.994;2023-03-14T12:52:22;0.50;;;0.50;;
13584;SDS011;6863;48.402;9.994;2023-03-14T12:55:10;0.57;;;0.57;;
13584;SDS011;6863;48.402;9.994;2023-03-14T12:57:55;0.70;;;0.70;;
13584;SDS011;6863;48.402;9.994;2023-03-14T13:00:33;0.97;;;0.70;;
13584;SDS011;6863;48.402;9.994;2023-03-14T13:03:12;1.20;;;0.60;;
13584;SDS011;6863;48.402;9.994;2023-03-14T13:05:54;0.80;;;0.80;;
13584;SDS011;6863;48.402;9.994;2023-03-14T13:11:21;0.77;;;0.77;;
13584;SDS011;6863;48.402;9.994;2023-03-14T13:13:57;0.60;;;0.60;;
13584;SDS011;6863;48.402;9.994;2023-03-14T13:16:24;0.70;;;0.70;;
13584;SDS011;6863;48.402;9.994;2023-03-14T13:18:50;1.00;;;0.90;;
13584;SDS011;6863;48.402;9.994;2023-03-14T13:21:25;0.60;;;0.60;;
13584;SDS011;6863;48.402;9.994;2023-03-14T13:23:57;0.93;;;0.80;;
13584;SDS011;6863;48.402;9.994;2023-03-14T13:26:35;1.00;;;1.00;;
13584;SDS011;6863;48.402;9.994;2023-03-14T13:29:14;1.63;;;1.10;;
13584;SDS011;6863;48.402;9.994;2023-03-14T13:31:44;0.87;;;0.80;;
13584;SDS011;6863;48.402;9.994;2023-03-14T13:34:15;0.60;;;0.60;;
13584;SDS011;6863;48.402;9.994;2023-03-14T13:36:40;0.70;;;0.70;;
13584;SDS011;6863;48.402;9.994;2023-03-14T13:39:09;0.60;;;0.60;;
13584;SDS011;6863;48.402;9.994;2023-03-14T13:41:39;0.70;;;0.70;;
13584;SDS011;6863;48.402;9.994;2023-03-14T13:44:06;0.63;;;0.63;;
13584;SDS011;6863;48.402;9.994;2023-03-14T13:46:38;0.67;;;0.67;;
13584;SDS011;6863;48.402;9.994;2023-03-14T13:49:04;0.60;;;0.60;;
13584;SDS011;6863;48.402;9.994;2023-03-14T13:51:32;0.50;;;0.50;;
13584;SDS011;6863;48.402;9.994;2023-03-14T13:53:58;1.47;;;1.00;;
13584;SDS011;6863;48.402;9.994;2023-03-14T13:56:26;0.63;;;0.60;;
13584;SDS011;6863;48.402;9.994;2023-03-14T13:58:53;1.37;;;1.27;;
13584;SDS011;6863;48.402;9.994;2023-03-14T14:01:20;0.87;;;0.87;;
13584;SDS011;6863;48.402;9.994;2023-03-14T14:03:50;0.50;;;0.50;;
13584;SDS011;6863;48.402;9.994;2023-03-14T14:09:12;0.60;;;0.60;;
13584;SDS011;6863;48.402;9.994;2023-03-14T14:11:45;1.43;;;0.70;;
13584;SDS011;6863;48.402;9.994;2023-03-14T14:14:38;0.60;;;0.60;;
13584;SDS011;6863;48.402;9.994;2023-03-14T14:17:08;0.53;;;0.53;;
13584;SDS011;6863;48.402;9.994;2023-03-14T14:19:37;0.90;;;0.80;;
13584;SDS011;6863;48.402;9.994;2023-03-14T14:22:04;0.90;;;0.90;;
13584;SDS011;6863;48.402;9.994;2023-03-14T14:24:31;1.60;;;1.43;;
13584;SDS011;6863;48.402;9.994;2023-03-14T14:26:59;1.77;;;0.80;;
13584;SDS011;6863;48.402;9.994;2023-03-14T14:29:30;0.97;;;0.90;;
13584;SDS011;6863;48.402;9.994;2023-03-14T14:32:08;1.90;;;0.87;;
13584;SDS011;6863;48.402;9.994;2023-03-14T14:34:41;1.47;;;1.00;;
13584;SDS011;6863;48.402;9.994;2023-03-14T14:37:23;1.30;;;1.10;;
13584;SDS011;6863;48.402;9.994;2023-03-14T14:39:55;0.93;;;0.93;;
13584;SDS011;6863;48.402;9.994;2023-03-14T14:42:31;1.63;;;1.07;;
13584;SDS011;6863;48.402;9.994;2023-03-14T14:44:57;1.70;;;1.00;;
13584;SDS011;6863;48.402;9.994;2023-03-14T14:47:25;1.07;;;1.07;;
13584;SDS011;6863;48.402;9.994;2023-03-14T14:49:53;2.13;;;1.07;;
13584;SDS011;6863;48.402;9.994;2023-03-14T14:52:21;1.53;;;1.00;;
13584;SDS011;6863;48.402;9.994;2023-03-14T14:55:00;1.80;;;1.63;;
13584;SDS011;6863;48.402;9.994;2023-03-14T14:57:30;2.83;;;1.00;;
13584;SDS011;6863;48.402;9.994;2023-03-14T15:00:03;1.67;;;1.10;;
13584;SDS011;6863;48.402;9.994;2023-03-14T15:02:36;2.20;;;1.37;;
13584;SDS011;6863;48.402;9.994;2023-03-14T15:05:19;1.10;;;1.10;;
13584;SDS011;6863;48.402;9.994;2023-03-14T15:07:46;3.10;;;1.10;;
13584;SDS011;6863;48.402;9.994;2023-03-14T15:10:13;1.27;;;1.17;;
13584;SDS011;6863;48.402;9.994;2023-03-14T15:12:43;2.10;;;1.30;;
13584;SDS011;6863;48.402;9.994;2023-03-14T15:15:09;1.20;;;1.10;;
13584;SDS011;6863;48.402;9.994;2023-03-14T15:17:36;1.70;;;1.10;;
13584;SDS011;6863;48.402;9.994;2023-03-14T15:20:03;1.13;;;1.10;;
13584;SDS011;6863;48.402;9.994;2023-03-14T15:22:30;2.20;;;1.00;;
13584;SDS011;6863;48.402;9.994;2023-03-14T15:24:56;3.13;;;1.40;;
13584;SDS011;6863;48.402;9.994;2023-03-14T15:27:21;1.50;;;1.40;;
13584;SDS011;6863;48.402;9.994;2023-03-14T15:29:48;2.97;;;1.37;;
13584;SDS011;6863;48.402;9.994;2023-03-14T15:32:14;2.63;;;1.20;;
13584;SDS011;6863;48.402;9.994;2023-03-14T15:34:41;1.73;;;1.30;;
13584;SDS011;6863;48.402;9.994;2023-03-14T15:37:14;2.13;;;1.30;;
13584;SDS011;6863;48.402;9.994;2023-03-14T15:39:41;1.37;;;1.27;;
13584;SDS011;6863;48.402;9.994;2023-03-14T15:42:08;3.40;;;1.53;;
13584;SDS011;6863;48.402;9.994;2023-03-14T15:44:34;1.43;;;1.20;;
13584;SDS011;6863;48.402;9.994;2023-03-14T15:47:00;1.77;;;1.40;;
13584;SDS011;6863;48.402;9.994;2023-03-14T15:49:26;1.40;;;1.30;;
13584;SDS011;6863;48.402;9.994;2023-03-14T15:51:52;1.50;;;1.50;;
13584;SDS011;6863;48.402;9.994;2023-03-14T15:54:18;2.03;;;1.77;;
13584;SDS011;6863;48.402;9.994;2023-03-14T15:56:44;2.37;;;1.50;;
13584;SDS011;6863;48.402;9.994;2023-03-14T15:59:09;2.37;;;1.37;;
13584;SDS011;6863;48.402;9.994;2023-03-14T16:01:35;1.30;;;1.20;;
13584;SDS011;6863;48.402;9.994;2023-03-14T16:04:00;2.77;;;1.37;;
13584;SDS011;6863;48.402;9.994;2023-03-14T16:06:27;2.63;;;1.60;;
13584;SDS011;6863;48.402;9.994;2023-03-14T16:08:53;2.17;;;1.40;;
13584;SDS011;6863;48.402;9.994;2023-03-14T16:11:20;1.33;;;1.23;;